Huvudsida
METAR-TAF:

METAR-TAF

Flygplatser :

Jacarepagua-Roberto Marinho Airport

Rio de Janeiro, Rio de Janeiro, Brasilien

latitud: 22-59S, longitud: 043-22W, höjd: 3 m

Aktuellt väderrapport

Denna rapport gjordes för 45 minuter sedan, klockan 22:00 UTC
Vind 3 kt från väst/sydväst
Temperatur 29°C
Fuktighet 70%
Tryck 1007 hPa
Sikt 10 km eller mer
Få moln på en höjd av 2500 ft

METAR: SBJR 192200Z 25003KT 9999 FEW025 29/23 Q1007

Tid: 19:45 (22:45 UTC)


TAF: saknas

Aktuella väderrapporter och prognoser från 4000 flygplatser (METAR- och TAF-rapporter).

De tillgängliga stationerna syns som gula och röda prickar på kartan.

För musen över prickarna för att se namnen på stationerna.

Klicka sedan för att få väderrapporter och prognoser.

För att ändra kartan: Klicka på de gröna knapparna med ett svart kors på för att zooma in; den gröna knappen med ett streck på för att zooma ut; eller på de gröna pilarna för angränsande kartor.


METAR-TAF: